CES735 ZSPD-YSSY
Flight info
| Callsign | CES735 |
|---|---|
| Flight time | N/A |
| Altitude | 37000 |
| Route | LAM82D LAMEN A593 SADLI Y590 BEDAR Y591 ISPIT Z41 AGIKA G339 SABGU A339 KEITH R204 CS Y177 AKROM Y153 KANKO DCT SULMI DCT OVNOM H652 BOREE |
| Aircraft | A346/H-SDE2E3FGHIJ3J4J5M1RWXY/LB1D1 |
Departure
| Time | N/A |
|---|---|
| Airport | Shanghai Pudong International Airport (ZSPD) |
Arrival
| Time | 2026-05-06 09:35 |
|---|---|
| Airport | Sydney Kingsford Smith International Airport (YSSY) |
| Time | Latitude | Longitude | Altitude | Speed | Heading |
|---|---|---|---|---|---|
| 2026-05-06 07:30 | -19.00046 | 146.97179 | 36977 ft | 508 kts | 172° |
| 2026-05-06 07:30 | -19.03477 | 146.98094 | 36977 ft | 508 kts | 172° |
| 2026-05-06 07:31 | -19.10332 | 146.99924 | 36974 ft | 508 kts | 172° |
| 2026-05-06 07:31 | -19.17193 | 147.01760 | 36979 ft | 509 kts | 172° |
| 2026-05-06 07:32 | -19.24064 | 147.03598 | 36976 ft | 509 kts | 173° |
| 2026-05-06 07:32 | -19.30933 | 147.05434 | 36976 ft | 509 kts | 172° |
| 2026-05-06 07:33 | -19.37807 | 147.07276 | 36977 ft | 509 kts | 172° |
| 2026-05-06 07:33 | -19.44681 | 147.09121 | 36985 ft | 510 kts | 173° |
| 2026-05-06 07:34 | -19.51562 | 147.10969 | 36980 ft | 510 kts | 173° |
| 2026-05-06 07:34 | -19.58465 | 147.12823 | 36982 ft | 517 kts | 173° |
| 2026-05-06 07:35 | -19.65475 | 147.14706 | 36978 ft | 521 kts | 172° |
| 2026-05-06 07:35 | -19.72509 | 147.16606 | 37001 ft | 522 kts | 172° |
| 2026-05-06 07:36 | -19.79558 | 147.18511 | 36981 ft | 523 kts | 173° |
| 2026-05-06 07:36 | -19.86627 | 147.20410 | 36974 ft | 524 kts | 173° |
| 2026-05-06 07:37 | -19.93691 | 147.22306 | 36974 ft | 524 kts | 173° |
| 2026-05-06 07:37 | -20.00702 | 147.24196 | 36978 ft | 524 kts | 173° |
| 2026-05-06 07:38 | -20.07779 | 147.26109 | 36982 ft | 526 kts | 173° |
| 2026-05-06 07:38 | -20.14872 | 147.28028 | 36977 ft | 526 kts | 173° |
| 2026-05-06 07:39 | -20.21965 | 147.29949 | 36978 ft | 526 kts | 173° |
| 2026-05-06 07:39 | -20.29063 | 147.31874 | 36978 ft | 526 kts | 173° |
| 2026-05-06 07:40 | -20.36163 | 147.33802 | 36990 ft | 527 kts | 173° |
| 2026-05-06 07:40 | -20.43273 | 147.35732 | 36982 ft | 528 kts | 173° |
| 2026-05-06 07:41 | -20.50391 | 147.37668 | 36980 ft | 527 kts | 173° |
| 2026-05-06 07:41 | -20.57497 | 147.39600 | 36978 ft | 527 kts | 173° |
| 2026-05-06 07:42 | -20.64610 | 147.41539 | 36994 ft | 528 kts | 173° |
| 2026-05-06 07:42 | -20.71724 | 147.43481 | 36983 ft | 528 kts | 173° |
| 2026-05-06 07:43 | -20.78841 | 147.45422 | 36978 ft | 528 kts | 173° |
| 2026-05-06 07:43 | -20.85961 | 147.47367 | 36985 ft | 528 kts | 173° |
| 2026-05-06 07:44 | -20.93074 | 147.49313 | 37005 ft | 528 kts | 173° |
| 2026-05-06 07:44 | -21.00200 | 147.51267 | 37035 ft | 531 kts | 173° |
| 2026-05-06 07:45 | -21.03787 | 147.52246 | 37381 ft | 532 kts | 173° |
| 2026-05-06 07:45 | -21.07363 | 147.53226 | 37876 ft | 529 kts | 173° |
| 2026-05-06 07:45 | -21.10921 | 147.54203 | 38352 ft | 527 kts | 173° |
| 2026-05-06 07:45 | -21.14470 | 147.55178 | 38734 ft | 526 kts | 173° |
| 2026-05-06 07:46 | -21.18012 | 147.56151 | 38968 ft | 525 kts | 173° |
| 2026-05-06 07:46 | -21.21552 | 147.57123 | 38986 ft | 524 kts | 173° |
| 2026-05-06 07:46 | -21.28615 | 147.59064 | 38992 ft | 524 kts | 173° |
| 2026-05-06 07:47 | -21.35674 | 147.61005 | 38994 ft | 524 kts | 173° |
| 2026-05-06 07:47 | -21.42732 | 147.62948 | 38994 ft | 524 kts | 173° |
| 2026-05-06 07:48 | -21.49744 | 147.64881 | 38995 ft | 523 kts | 173° |
| 2026-05-06 07:48 | -21.56798 | 147.66830 | 38999 ft | 524 kts | 173° |
| 2026-05-06 07:49 | -21.63860 | 147.68780 | 38998 ft | 524 kts | 173° |
| 2026-05-06 07:49 | -21.70925 | 147.70732 | 38997 ft | 524 kts | 173° |
| 2026-05-06 07:50 | -21.77984 | 147.72686 | 38997 ft | 524 kts | 173° |
| 2026-05-06 07:50 | -21.85049 | 147.74646 | 39010 ft | 524 kts | 174° |
| 2026-05-06 07:51 | -21.92118 | 147.76606 | 38994 ft | 525 kts | 174° |
| 2026-05-06 07:51 | -21.99203 | 147.78572 | 39003 ft | 525 kts | 174° |
| 2026-05-06 07:52 | -22.06273 | 147.80537 | 39003 ft | 525 kts | 174° |
| 2026-05-06 07:52 | -22.13347 | 147.82506 | 39019 ft | 524 kts | 174° |
| 2026-05-06 07:53 | -22.20411 | 147.84474 | 39008 ft | 524 kts | 174° |
| 2026-05-06 07:53 | -22.27477 | 147.86444 | 39011 ft | 524 kts | 174° |
| 2026-05-06 07:54 | -22.34541 | 147.88416 | 39011 ft | 524 kts | 174° |
| 2026-05-06 07:54 | -22.41559 | 147.90378 | 39038 ft | 524 kts | 174° |
| 2026-05-06 07:55 | -22.48619 | 147.92356 | 39020 ft | 524 kts | 174° |
| 2026-05-06 07:55 | -22.55673 | 147.94331 | 39005 ft | 523 kts | 174° |
| 2026-05-06 07:56 | -22.62726 | 147.96311 | 39020 ft | 523 kts | 174° |
| 2026-05-06 07:56 | -22.69772 | 147.98294 | 39019 ft | 523 kts | 174° |
| 2026-05-06 07:57 | -22.76823 | 148.00278 | 39022 ft | 523 kts | 174° |
| 2026-05-06 07:57 | -22.83877 | 148.02247 | 39013 ft | 524 kts | 174° |
| 2026-05-06 07:58 | -22.90931 | 148.04225 | 39014 ft | 524 kts | 174° |
| 2026-05-06 07:58 | -22.97984 | 148.06210 | 39009 ft | 524 kts | 174° |
| 2026-05-06 07:59 | -23.05041 | 148.08204 | 39026 ft | 525 kts | 174° |
| 2026-05-06 07:59 | -23.12118 | 148.10200 | 39017 ft | 525 kts | 174° |
| 2026-05-06 08:00 | -23.19146 | 148.12186 | 39015 ft | 525 kts | 174° |
| 2026-05-06 08:00 | -23.26221 | 148.14188 | 39016 ft | 526 kts | 174° |
| 2026-05-06 08:01 | -23.33298 | 148.16196 | 39029 ft | 526 kts | 175° |
| 2026-05-06 08:01 | -23.40387 | 148.18205 | 39017 ft | 526 kts | 175° |
| 2026-05-06 08:02 | -23.47477 | 148.20217 | 39018 ft | 526 kts | 175° |
| 2026-05-06 08:02 | -23.54562 | 148.22231 | 39015 ft | 526 kts | 175° |
| 2026-05-06 08:03 | -23.61643 | 148.24249 | 39027 ft | 526 kts | 175° |
| 2026-05-06 08:03 | -23.68725 | 148.26265 | 39023 ft | 526 kts | 175° |
| 2026-05-06 08:04 | -23.75812 | 148.28285 | 39023 ft | 526 kts | 175° |
| 2026-05-06 08:04 | -23.82901 | 148.30309 | 39025 ft | 526 kts | 175° |
| 2026-05-06 08:05 | -23.89991 | 148.32337 | 39045 ft | 527 kts | 175° |
| 2026-05-06 08:05 | -23.97082 | 148.34367 | 39032 ft | 527 kts | 175° |
| 2026-05-06 08:06 | -24.04171 | 148.36397 | 39031 ft | 527 kts | 175° |
| 2026-05-06 08:06 | -24.11265 | 148.38431 | 39033 ft | 527 kts | 175° |
| 2026-05-06 08:07 | -24.18357 | 148.40468 | 39033 ft | 527 kts | 175° |
| 2026-05-06 08:07 | -24.25449 | 148.42507 | 39038 ft | 527 kts | 175° |
| 2026-05-06 08:08 | -24.32491 | 148.44534 | 39037 ft | 527 kts | 175° |
| 2026-05-06 08:08 | -24.39589 | 148.46579 | 39037 ft | 527 kts | 175° |
| 2026-05-06 08:09 | -24.46680 | 148.48627 | 39060 ft | 527 kts | 175° |
| 2026-05-06 08:09 | -24.53766 | 148.50676 | 39047 ft | 526 kts | 175° |
| 2026-05-06 08:10 | -24.60842 | 148.52720 | 39045 ft | 526 kts | 175° |
| 2026-05-06 08:10 | -24.67922 | 148.54769 | 39046 ft | 526 kts | 175° |
| 2026-05-06 08:11 | -24.75007 | 148.56823 | 39075 ft | 526 kts | 175° |
| 2026-05-06 08:11 | -24.82091 | 148.58880 | 39061 ft | 526 kts | 175° |
| 2026-05-06 08:12 | -24.89169 | 148.60936 | 39054 ft | 526 kts | 175° |
| 2026-05-06 08:12 | -24.96245 | 148.62993 | 39063 ft | 526 kts | 175° |
| 2026-05-06 08:13 | -25.03316 | 148.65053 | 39095 ft | 526 kts | 175° |
| 2026-05-06 08:13 | -25.10405 | 148.67122 | 39074 ft | 527 kts | 175° |
| 2026-05-06 08:14 | -25.17494 | 148.69191 | 39079 ft | 527 kts | 175° |
| 2026-05-06 08:14 | -25.24583 | 148.71264 | 39075 ft | 527 kts | 175° |
| 2026-05-06 08:15 | -25.31676 | 148.73341 | 39115 ft | 527 kts | 175° |
| 2026-05-06 08:15 | -25.38727 | 148.75410 | 39091 ft | 529 kts | 176° |
| 2026-05-06 08:16 | -25.45844 | 148.77500 | 39085 ft | 528 kts | 176° |
| 2026-05-06 08:16 | -25.52949 | 148.79591 | 39086 ft | 528 kts | 176° |
| 2026-05-06 08:17 | -25.60046 | 148.81684 | 39127 ft | 528 kts | 176° |
| 2026-05-06 08:17 | -25.67153 | 148.83776 | 39096 ft | 528 kts | 176° |
| 2026-05-06 08:18 | -25.74265 | 148.85860 | 39086 ft | 529 kts | 176° |
| 2026-05-06 08:18 | -25.81375 | 148.87952 | 39087 ft | 529 kts | 176° |
| 2026-05-06 08:19 | -25.88484 | 148.90053 | 39120 ft | 529 kts | 176° |
| 2026-05-06 08:19 | -25.95603 | 148.92163 | 39100 ft | 529 kts | 176° |
| 2026-05-06 08:20 | -26.01519 | 148.93915 | 39090 ft | 529 kts | 176° |
| 2026-05-06 08:20 | -26.09833 | 148.96383 | 39091 ft | 529 kts | 176° |
| 2026-05-06 08:21 | -26.15751 | 148.98141 | 39090 ft | 529 kts | 176° |
| 2026-05-06 08:21 | -26.22877 | 149.00266 | 39104 ft | 530 kts | 176° |
| 2026-05-06 08:22 | -26.29998 | 149.02387 | 39100 ft | 530 kts | 176° |
| 2026-05-06 08:22 | -26.37122 | 149.04517 | 39091 ft | 530 kts | 176° |
| 2026-05-06 08:23 | -26.44242 | 149.06647 | 39098 ft | 529 kts | 177° |
| 2026-05-06 08:23 | -26.51361 | 149.08310 | 39109 ft | 518 kts | 183° |
| 2026-05-06 08:24 | -26.58470 | 149.09543 | 39102 ft | 517 kts | 184° |
| 2026-05-06 08:24 | -26.65580 | 149.10760 | 39098 ft | 517 kts | 184° |
| 2026-05-06 08:25 | -26.72690 | 149.11999 | 39124 ft | 517 kts | 184° |
| 2026-05-06 08:25 | -26.79797 | 149.13251 | 39106 ft | 517 kts | 184° |
| 2026-05-06 08:26 | -26.86910 | 149.14505 | 39100 ft | 517 kts | 184° |
| 2026-05-06 08:26 | -26.94023 | 149.15762 | 39099 ft | 517 kts | 184° |
| 2026-05-06 08:27 | -27.01132 | 149.17021 | 39097 ft | 517 kts | 184° |
| 2026-05-06 08:27 | -27.08240 | 149.18281 | 39097 ft | 517 kts | 184° |
| 2026-05-06 08:28 | -27.15348 | 149.19542 | 39102 ft | 517 kts | 184° |
| 2026-05-06 08:28 | -27.22414 | 149.20798 | 39101 ft | 517 kts | 184° |
| 2026-05-06 08:29 | -27.29535 | 149.22066 | 39121 ft | 517 kts | 184° |
| 2026-05-06 08:29 | -27.36647 | 149.23334 | 39105 ft | 518 kts | 184° |
| 2026-05-06 08:30 | -27.43759 | 149.24602 | 39103 ft | 518 kts | 184° |
| 2026-05-06 08:30 | -27.50870 | 149.25873 | 39108 ft | 518 kts | 184° |
| 2026-05-06 08:31 | -27.57982 | 149.27144 | 39125 ft | 517 kts | 184° |
| 2026-05-06 08:31 | -27.65084 | 149.28417 | 39110 ft | 517 kts | 184° |
| 2026-05-06 08:32 | -27.72185 | 149.29691 | 39111 ft | 517 kts | 184° |
| 2026-05-06 08:32 | -27.79288 | 149.30968 | 39109 ft | 517 kts | 184° |
| 2026-05-06 08:33 | -27.86384 | 149.32243 | 39122 ft | 516 kts | 184° |
| 2026-05-06 08:33 | -27.93477 | 149.33524 | 39115 ft | 516 kts | 184° |
| 2026-05-06 08:34 | -28.04118 | 149.35451 | 39109 ft | 516 kts | 183° |
| 2026-05-06 08:35 | -28.11209 | 149.36736 | 39130 ft | 516 kts | 183° |
| 2026-05-06 08:35 | -28.18299 | 149.38144 | 39110 ft | 522 kts | 179° |
| 2026-05-06 08:36 | -28.25381 | 149.40397 | 39113 ft | 535 kts | 172° |
| 2026-05-06 08:36 | -28.32346 | 149.43594 | 39110 ft | 543 kts | 167° |
| 2026-05-06 08:37 | -28.39266 | 149.47051 | 39128 ft | 542 kts | 166° |
| 2026-05-06 08:37 | -28.46170 | 149.50495 | 39111 ft | 542 kts | 166° |
| 2026-05-06 08:38 | -28.53036 | 149.53898 | 39107 ft | 542 kts | 167° |
| 2026-05-06 08:38 | -28.59948 | 149.57317 | 39108 ft | 541 kts | 167° |
| 2026-05-06 08:39 | -28.66856 | 149.60736 | 39133 ft | 541 kts | 166° |
| 2026-05-06 08:39 | -28.73755 | 149.64156 | 39113 ft | 540 kts | 166° |
| 2026-05-06 08:40 | -28.80647 | 149.67582 | 39110 ft | 540 kts | 166° |
| 2026-05-06 08:40 | -28.87538 | 149.71010 | 39110 ft | 540 kts | 166° |
| 2026-05-06 08:41 | -28.94428 | 149.74442 | 39144 ft | 540 kts | 166° |
| 2026-05-06 08:41 | -29.01308 | 149.77872 | 39119 ft | 539 kts | 166° |
| 2026-05-06 08:42 | -29.08181 | 149.81308 | 39110 ft | 539 kts | 166° |
| 2026-05-06 08:42 | -29.15050 | 149.84746 | 39109 ft | 539 kts | 166° |
| 2026-05-06 08:43 | -29.21922 | 149.88190 | 39108 ft | 539 kts | 166° |
| 2026-05-06 08:43 | -29.28784 | 149.91631 | 39113 ft | 538 kts | 165° |
| 2026-05-06 08:44 | -29.35631 | 149.95076 | 39111 ft | 538 kts | 165° |
| 2026-05-06 08:44 | -29.42485 | 149.98530 | 39108 ft | 538 kts | 165° |
| 2026-05-06 08:45 | -29.49330 | 150.01986 | 39108 ft | 538 kts | 165° |
| 2026-05-06 08:45 | -29.56174 | 150.05446 | 39122 ft | 537 kts | 165° |
| 2026-05-06 08:46 | -29.62970 | 150.08834 | 39113 ft | 533 kts | 167° |
| 2026-05-06 08:46 | -29.69941 | 150.11504 | 39113 ft | 523 kts | 174° |
| 2026-05-06 08:47 | -29.76974 | 150.13606 | 39109 ft | 522 kts | 176° |
| 2026-05-06 08:47 | -29.84015 | 150.15675 | 39110 ft | 522 kts | 175° |
| 2026-05-06 08:48 | -29.91048 | 150.17770 | 39113 ft | 522 kts | 175° |
| 2026-05-06 08:48 | -29.98086 | 150.19882 | 39115 ft | 523 kts | 175° |
| 2026-05-06 08:49 | -30.05118 | 150.22000 | 39130 ft | 522 kts | 175° |
| 2026-05-06 08:49 | -30.12149 | 150.24117 | 39110 ft | 521 kts | 175° |
| 2026-05-06 08:50 | -30.19168 | 150.26240 | 39114 ft | 521 kts | 175° |
| 2026-05-06 08:50 | -30.26192 | 150.28364 | 39119 ft | 522 kts | 175° |
| 2026-05-06 08:51 | -30.33209 | 150.30489 | 39143 ft | 522 kts | 174° |
| 2026-05-06 08:51 | -30.40223 | 150.32613 | 39114 ft | 520 kts | 174° |
| 2026-05-06 08:52 | -30.47164 | 150.34731 | 39107 ft | 514 kts | 174° |
| 2026-05-06 08:52 | -30.54080 | 150.36835 | 39108 ft | 513 kts | 174° |
| 2026-05-06 08:53 | -30.60991 | 150.38939 | 39125 ft | 513 kts | 174° |
| 2026-05-06 08:53 | -30.67897 | 150.41048 | 39105 ft | 513 kts | 174° |
| 2026-05-06 08:54 | -30.74785 | 150.43161 | 39101 ft | 512 kts | 174° |
| 2026-05-06 08:54 | -30.81690 | 150.45280 | 39104 ft | 512 kts | 174° |
| 2026-05-06 08:55 | -30.88586 | 150.47382 | 39111 ft | 511 kts | 174° |
| 2026-05-06 08:55 | -30.95417 | 150.49465 | 39098 ft | 511 kts | 174° |
| 2026-05-06 08:56 | -31.02291 | 150.51575 | 39099 ft | 511 kts | 174° |
| 2026-05-06 08:56 | -31.09164 | 150.53691 | 39103 ft | 510 kts | 174° |
| 2026-05-06 08:57 | -31.16033 | 150.55802 | 39114 ft | 510 kts | 173° |
| 2026-05-06 08:57 | -31.22888 | 150.57920 | 39104 ft | 510 kts | 173° |
| 2026-05-06 08:57 | -31.26316 | 150.58981 | 38899 ft | 510 kts | 173° |
| 2026-05-06 08:58 | -31.29750 | 150.60044 | 38657 ft | 510 kts | 173° |
| 2026-05-06 08:58 | -31.33179 | 150.61105 | 38383 ft | 510 kts | 173° |
| 2026-05-06 08:58 | -31.36606 | 150.62166 | 38104 ft | 510 kts | 173° |
| 2026-05-06 08:58 | -31.40033 | 150.63226 | 37855 ft | 509 kts | 173° |
| 2026-05-06 08:59 | -31.43460 | 150.64288 | 37581 ft | 509 kts | 172° |
| 2026-05-06 08:59 | -31.46880 | 150.65350 | 37323 ft | 508 kts | 172° |
| 2026-05-06 08:59 | -31.50291 | 150.66412 | 37112 ft | 508 kts | 172° |
| 2026-05-06 09:00 | -31.57123 | 150.68540 | 37100 ft | 508 kts | 172° |
| 2026-05-06 09:00 | -31.63960 | 150.70673 | 37099 ft | 508 kts | 172° |
| 2026-05-06 09:01 | -31.70790 | 150.72805 | 37101 ft | 507 kts | 172° |
| 2026-05-06 09:01 | -31.77608 | 150.74940 | 37098 ft | 507 kts | 172° |
| 2026-05-06 09:02 | -31.84408 | 150.77073 | 37073 ft | 503 kts | 172° |
| 2026-05-06 09:02 | -31.87785 | 150.78133 | 36633 ft | 503 kts | 172° |
| 2026-05-06 09:02 | -31.91189 | 150.79198 | 35611 ft | 512 kts | 172° |
| 2026-05-06 09:02 | -31.94662 | 150.80285 | 34740 ft | 518 kts | 171° |
| 2026-05-06 09:03 | -31.98150 | 150.81382 | 34103 ft | 518 kts | 171° |
| 2026-05-06 09:03 | -32.01634 | 150.82456 | 33414 ft | 516 kts | 173° |
| 2026-05-06 09:03 | -32.05131 | 150.83325 | 32706 ft | 512 kts | 176° |
| 2026-05-06 09:03 | -32.08642 | 150.83997 | 31966 ft | 511 kts | 178° |
| 2026-05-06 09:04 | -32.12162 | 150.84611 | 31229 ft | 511 kts | 178° |
| 2026-05-06 09:04 | -32.15676 | 150.85211 | 30493 ft | 511 kts | 178° |
| 2026-05-06 09:04 | -32.19143 | 150.85805 | 29718 ft | 511 kts | 178° |
| 2026-05-06 09:04 | -32.22664 | 150.86412 | 28792 ft | 512 kts | 178° |
| 2026-05-06 09:05 | -32.26194 | 150.87024 | 27876 ft | 512 kts | 177° |
| 2026-05-06 09:05 | -32.29722 | 150.87640 | 27018 ft | 512 kts | 176° |
| 2026-05-06 09:05 | -32.33205 | 150.88257 | 26134 ft | 499 kts | 176° |
| 2026-05-06 09:05 | -32.36581 | 150.88860 | 25365 ft | 482 kts | 176° |
| 2026-05-06 09:06 | -32.39881 | 150.89450 | 24996 ft | 479 kts | 176° |
| 2026-05-06 09:06 | -32.43166 | 150.90033 | 24605 ft | 476 kts | 176° |
| 2026-05-06 09:06 | -32.46425 | 150.90609 | 24170 ft | 472 kts | 176° |
| 2026-05-06 09:06 | -32.49659 | 150.91180 | 23728 ft | 468 kts | 176° |
| 2026-05-06 09:07 | -32.52862 | 150.91742 | 23212 ft | 463 kts | 176° |
| 2026-05-06 09:07 | -32.56033 | 150.92297 | 22728 ft | 458 kts | 175° |
| 2026-05-06 09:07 | -32.59165 | 150.92849 | 22267 ft | 453 kts | 175° |
| 2026-05-06 09:07 | -32.62270 | 150.93398 | 21818 ft | 449 kts | 175° |
| 2026-05-06 09:08 | -32.65348 | 150.93945 | 21363 ft | 445 kts | 175° |
| 2026-05-06 09:08 | -32.68396 | 150.94487 | 20915 ft | 441 kts | 174° |
| 2026-05-06 09:08 | -32.71415 | 150.95028 | 20475 ft | 437 kts | 174° |
| 2026-05-06 09:08 | -32.74411 | 150.95564 | 20027 ft | 433 kts | 174° |
| 2026-05-06 09:09 | -32.77379 | 150.96094 | 19584 ft | 429 kts | 174° |
| 2026-05-06 09:09 | -32.79372 | 150.96448 | 19284 ft | 427 kts | 174° |
| 2026-05-06 09:09 | -32.82255 | 150.96955 | 18849 ft | 423 kts | 174° |
| 2026-05-06 09:09 | -32.85155 | 150.97466 | 18405 ft | 419 kts | 174° |
| 2026-05-06 09:10 | -32.88031 | 150.97975 | 17907 ft | 416 kts | 174° |
| 2026-05-06 09:10 | -32.90879 | 150.98482 | 17458 ft | 412 kts | 174° |
| 2026-05-06 09:10 | -32.93697 | 150.98988 | 17003 ft | 408 kts | 174° |
| 2026-05-06 09:10 | -32.96488 | 150.99487 | 16558 ft | 404 kts | 174° |
| 2026-05-06 09:11 | -32.99257 | 150.99982 | 16113 ft | 401 kts | 174° |
| 2026-05-06 09:11 | -33.02008 | 151.00474 | 15677 ft | 398 kts | 174° |
| 2026-05-06 09:11 | -33.04733 | 151.00962 | 15243 ft | 394 kts | 174° |
| 2026-05-06 09:11 | -33.07437 | 151.01447 | 14792 ft | 391 kts | 173° |
| 2026-05-06 09:12 | -33.10117 | 151.01928 | 14374 ft | 388 kts | 173° |
| 2026-05-06 09:12 | -33.12776 | 151.02406 | 14004 ft | 386 kts | 173° |
| 2026-05-06 09:12 | -33.15430 | 151.02884 | 13529 ft | 386 kts | 173° |
| 2026-05-06 09:12 | -33.18079 | 151.03363 | 13034 ft | 384 kts | 174° |
| 2026-05-06 09:13 | -33.20713 | 151.03837 | 12578 ft | 381 kts | 174° |
| 2026-05-06 09:13 | -33.23323 | 151.04306 | 12143 ft | 378 kts | 174° |
| 2026-05-06 09:13 | -33.25910 | 151.04785 | 11702 ft | 375 kts | 173° |
| 2026-05-06 09:13 | -33.28472 | 151.05277 | 11303 ft | 370 kts | 173° |
| 2026-05-06 09:14 | -33.30995 | 151.05766 | 10935 ft | 363 kts | 173° |
| 2026-05-06 09:14 | -33.33445 | 151.06241 | 10769 ft | 350 kts | 173° |
| 2026-05-06 09:14 | -33.35809 | 151.06698 | 10614 ft | 338 kts | 173° |
| 2026-05-06 09:14 | -33.38093 | 151.07136 | 10474 ft | 326 kts | 174° |
| 2026-05-06 09:15 | -33.40294 | 151.07558 | 10350 ft | 316 kts | 174° |
| 2026-05-06 09:15 | -33.42459 | 151.07970 | 10238 ft | 315 kts | 174° |
| 2026-05-06 09:15 | -33.44618 | 151.08382 | 10133 ft | 314 kts | 174° |
| 2026-05-06 09:15 | -33.46776 | 151.08796 | 10033 ft | 314 kts | 174° |
| 2026-05-06 09:16 | -33.48929 | 151.09209 | 9927 ft | 313 kts | 174° |
| 2026-05-06 09:16 | -33.51079 | 151.09625 | 9592 ft | 311 kts | 174° |
| 2026-05-06 09:16 | -33.53209 | 151.10037 | 9274 ft | 309 kts | 173° |
| 2026-05-06 09:16 | -33.55323 | 151.10445 | 8929 ft | 307 kts | 173° |
| 2026-05-06 09:17 | -33.57423 | 151.10849 | 8602 ft | 305 kts | 173° |
| 2026-05-06 09:17 | -33.59499 | 151.11250 | 8319 ft | 300 kts | 173° |
| 2026-05-06 09:17 | -33.61536 | 151.11644 | 8067 ft | 293 kts | 173° |
| 2026-05-06 09:17 | -33.63523 | 151.12035 | 7999 ft | 288 kts | 173° |
| 2026-05-06 09:18 | -33.65505 | 151.12426 | 8010 ft | 288 kts | 173° |
| 2026-05-06 09:18 | -33.67484 | 151.12816 | 8015 ft | 287 kts | 173° |
| 2026-05-06 09:18 | -33.69454 | 151.13207 | 8014 ft | 287 kts | 173° |
| 2026-05-06 09:18 | -33.71423 | 151.13594 | 8008 ft | 287 kts | 173° |
| 2026-05-06 09:19 | -33.73392 | 151.13975 | 8008 ft | 287 kts | 173° |
| 2026-05-06 09:19 | -33.75365 | 151.14357 | 8013 ft | 287 kts | 173° |
| 2026-05-06 09:19 | -33.77309 | 151.14733 | 8002 ft | 287 kts | 173° |
| 2026-05-06 09:19 | -33.79280 | 151.15115 | 8005 ft | 287 kts | 174° |
| 2026-05-06 09:20 | -33.81260 | 151.15263 | 8008 ft | 284 kts | 186° |
| 2026-05-06 09:20 | -33.83206 | 151.14915 | 8016 ft | 282 kts | 195° |
| 2026-05-06 09:20 | -33.85117 | 151.14373 | 8062 ft | 282 kts | 197° |
| 2026-05-06 09:20 | -33.87022 | 151.13803 | 8118 ft | 282 kts | 197° |
| 2026-05-06 09:21 | -33.88931 | 151.13236 | 8169 ft | 280 kts | 196° |
| 2026-05-06 09:21 | -33.90791 | 151.12693 | 8074 ft | 270 kts | 196° |
| 2026-05-06 09:21 | -33.92573 | 151.12178 | 8022 ft | 256 kts | 196° |
| 2026-05-06 09:21 | -33.94264 | 151.11692 | 8001 ft | 242 kts | 197° |
| 2026-05-06 09:22 | -33.95875 | 151.11229 | 7998 ft | 237 kts | 197° |
| 2026-05-06 09:22 | -33.97478 | 151.10764 | 7999 ft | 237 kts | 197° |
| 2026-05-06 09:22 | -33.99080 | 151.10298 | 7995 ft | 237 kts | 197° |
| 2026-05-06 09:22 | -34.00681 | 151.09835 | 7986 ft | 237 kts | 197° |
| 2026-05-06 09:23 | -34.02285 | 151.09370 | 7773 ft | 236 kts | 197° |
| 2026-05-06 09:23 | -34.03876 | 151.08910 | 7539 ft | 234 kts | 196° |
| 2026-05-06 09:23 | -34.05459 | 151.08453 | 7286 ft | 233 kts | 197° |
| 2026-05-06 09:23 | -34.07038 | 151.08045 | 6999 ft | 233 kts | 190° |
| 2026-05-06 09:24 | -34.08660 | 151.07972 | 6743 ft | 234 kts | 178° |
| 2026-05-06 09:24 | -34.10271 | 151.08260 | 6483 ft | 235 kts | 172° |
| 2026-05-06 09:24 | -34.11868 | 151.08673 | 6221 ft | 234 kts | 171° |
| 2026-05-06 09:24 | -34.13454 | 151.09098 | 5944 ft | 233 kts | 171° |
| 2026-05-06 09:25 | -34.15036 | 151.09519 | 5680 ft | 233 kts | 171° |
| 2026-05-06 09:25 | -34.16613 | 151.09933 | 5430 ft | 230 kts | 171° |
| 2026-05-06 09:25 | -34.18166 | 151.10339 | 5232 ft | 226 kts | 171° |
| 2026-05-06 09:25 | -34.19696 | 151.10744 | 4996 ft | 224 kts | 167° |
| 2026-05-06 09:26 | -34.21124 | 151.11464 | 4841 ft | 219 kts | 161° |
| 2026-05-06 09:26 | -34.22539 | 151.12027 | 4702 ft | 209 kts | 168° |
| 2026-05-06 09:26 | -34.23919 | 151.12449 | 4561 ft | 201 kts | 169° |
| 2026-05-06 09:26 | -34.25262 | 151.12851 | 4312 ft | 198 kts | 164° |
| 2026-05-06 09:27 | -34.26398 | 151.13782 | 3979 ft | 203 kts | 127° |
| 2026-05-06 09:27 | -34.26832 | 151.15367 | 3661 ft | 200 kts | 86° |
| 2026-05-06 09:27 | -34.26480 | 151.16956 | 3394 ft | 194 kts | 64° |
| 2026-05-06 09:27 | -34.25915 | 151.18430 | 3133 ft | 192 kts | 60° |
| 2026-05-06 09:28 | -34.25330 | 151.19870 | 2991 ft | 189 kts | 60° |
| 2026-05-06 09:28 | -34.24706 | 151.21271 | 2997 ft | 188 kts | 47° |
| 2026-05-06 09:28 | -34.23757 | 151.22293 | 3002 ft | 185 kts | 33° |
| 2026-05-06 09:28 | -34.22696 | 151.23167 | 2999 ft | 184 kts | 30° |
| 2026-05-06 09:29 | -34.21627 | 151.24015 | 2999 ft | 183 kts | 30° |
| 2026-05-06 09:29 | -34.20562 | 151.24859 | 2995 ft | 183 kts | 30° |
| 2026-05-06 09:29 | -34.19404 | 151.25380 | 2983 ft | 178 kts | 357° |
| 2026-05-06 09:29 | -34.18239 | 151.24944 | 3014 ft | 176 kts | 332° |
| 2026-05-06 09:30 | -34.17181 | 151.24212 | 2999 ft | 172 kts | 329° |
| 2026-05-06 09:30 | -34.16149 | 151.23564 | 2991 ft | 161 kts | 336° |
| 2026-05-06 09:30 | -34.15131 | 151.23107 | 2965 ft | 153 kts | 341° |
| 2026-05-06 09:30 | -34.14116 | 151.22755 | 2984 ft | 151 kts | 343° |
| 2026-05-06 09:31 | -34.13097 | 151.22444 | 2996 ft | 151 kts | 345° |
| 2026-05-06 09:31 | -34.12073 | 151.22154 | 2992 ft | 151 kts | 345° |
| 2026-05-06 09:31 | -34.09957 | 151.21584 | 2996 ft | 151 kts | 346° |
| 2026-05-06 09:32 | -34.08932 | 151.21317 | 2987 ft | 151 kts | 346° |
| 2026-05-06 09:32 | -34.07902 | 151.21049 | 2749 ft | 151 kts | 346° |
| 2026-05-06 09:32 | -34.06876 | 151.20782 | 2369 ft | 151 kts | 347° |
| 2026-05-06 09:32 | -34.05854 | 151.20515 | 1989 ft | 149 kts | 349° |
| 2026-05-06 09:33 | -34.04850 | 151.20254 | 1724 ft | 147 kts | 349° |
| 2026-05-06 09:33 | -34.03847 | 151.19996 | 1528 ft | 147 kts | 349° |
| 2026-05-06 09:33 | -34.02846 | 151.19737 | 1325 ft | 147 kts | 349° |
| 2026-05-06 09:33 | -34.01848 | 151.19478 | 1123 ft | 147 kts | 349° |
| 2026-05-06 09:34 | -34.00852 | 151.19211 | 911 ft | 146 kts | 348° |
| 2026-05-06 09:34 | -33.99864 | 151.18933 | 780 ft | 146 kts | 349° |
| 2026-05-06 09:34 | -33.98877 | 151.18663 | 557 ft | 145 kts | 349° |
| 2026-05-06 09:34 | -33.97887 | 151.18433 | 360 ft | 145 kts | 351° |
| 2026-05-06 09:35 | -33.96906 | 151.18190 | 160 ft | 144 kts | 349° |
| 2026-05-06 09:35 | -33.95946 | 151.17938 | 37 ft | 129 kts | 347° |
| 2026-05-06 09:35 | -33.95328 | 151.17780 | 38 ft | 53 kts | 348° |
| 2026-05-06 09:35 | -33.95106 | 151.17723 | 36 ft | 31 kts | 348° |
| 2026-05-06 09:36 | -33.94895 | 151.17668 | 37 ft | 31 kts | 348° |
| 2026-05-06 09:36 | -33.94681 | 151.17611 | 38 ft | 28 kts | 347° |
| 2026-05-06 09:36 | -33.94515 | 151.17533 | 38 ft | 25 kts | 330° |
| 2026-05-06 09:36 | -33.94415 | 151.17448 | 38 ft | 0 kts | 321° |
| 2026-05-06 09:37 | -33.94409 | 151.17442 | 38 ft | 3 kts | 321° |
| 2026-05-06 09:37 | -33.94399 | 151.17432 | 39 ft | 0 kts | 321° |
| 2026-05-06 09:38 | -33.94398 | 151.17431 | 39 ft | 1 kts | 321° |
| 2026-05-06 09:39 | -33.94383 | 151.17417 | 39 ft | 4 kts | 321° |
| 2026-05-06 09:39 | -33.94350 | 151.17384 | 37 ft | 8 kts | 320° |
| 2026-05-06 09:39 | -33.94296 | 151.17328 | 38 ft | 12 kts | 324° |
| 2026-05-06 09:39 | -33.94199 | 151.17284 | 37 ft | 17 kts | 345° |
| 2026-05-06 09:40 | -33.94072 | 151.17250 | 37 ft | 16 kts | 348° |
| 2026-05-06 09:40 | -33.93993 | 151.17193 | 38 ft | 15 kts | 287° |
| 2026-05-06 09:40 | -33.94039 | 151.16935 | 38 ft | 14 kts | 253° |
| 2026-05-06 09:41 | -33.94058 | 151.16843 | 38 ft | 8 kts | 277° |
| 2026-05-06 09:41 | -33.94001 | 151.16798 | 39 ft | 12 kts | 343° |
| 2026-05-06 09:41 | -33.93932 | 151.16775 | 39 ft | 4 kts | 344° |
| 2026-05-06 09:41 | -33.93891 | 151.16761 | 39 ft | 5 kts | 344° |
| 2026-05-06 09:42 | -33.93871 | 151.16755 | 39 ft | 1 kts | 346° |
| 2026-05-06 09:42 | -33.93860 | 151.16755 | 39 ft | 3 kts | 14° |
| 2026-05-06 09:42 | -33.93844 | 151.16769 | 39 ft | 4 kts | 49° |
| 2026-05-06 09:42 | -33.93838 | 151.16795 | 39 ft | 3 kts | 81° |
| 2026-05-06 09:43 | -33.93834 | 151.16814 | 39 ft | 3 kts | 74° |
| 2026-05-06 09:43 | -33.93830 | 151.16830 | 39 ft | 0 kts | 74° |